• Join FlightAware (Why Join?)
  • Login
  • US Flag 
12:35PM EDT


 

Airport Tracker/Info


-or-


 

Live Flight TrackerFlight Track Log ✈ DAL1769 ✈ 30-Apr-2012 ✈ KATL - KMCO

Flight Track Log - Related Links

Times and Time Zones

All times are in EDT time to prevent confusion due to time zone crossing. See the DAL1769 flight status page for this flight to view local times or setup timezone preferences in your user account.

Time Position Orientation Groundspeed Altitude Reporting Facility
EDT Latitude Longitude Course Direction KTS MPH feet Rate Location/Type
11:03PM 33.6333 -84.4500 257° West 170 196 2,400  Level Atlanta TRACON
11:04PM 33.6167 -84.5333 220° Southwest 238 274 4,500 2,640 Climbing Atlanta TRACON
11:05PM 33.5667 -84.5833 180° South 278 320 7,700 3,120 Climbing Atlanta TRACON
11:06PM 33.5000 -84.5833 152° Southeast 284 327 10,200 2,460 Climbing Atlanta TRACON
11:06PM 33.4550 -84.5542 145° Southeast 318 366 11,300 2,220 Climbing Atlanta Center
11:07PM 33.3739 -84.4867 146° Southeast 346 398 13,700 1,320 Climbing Atlanta Center
11:08PM 33.2886 -84.4167 151° Southeast 365 420 14,000 120 Climbing Atlanta Center
11:09PM 33.1969 -84.3567 159° South 372 428 14,000  Level Atlanta Center
11:10PM 33.1133 -84.3192 159° South 367 422 14,000  Level Atlanta Center
11:11PM 33.0175 -84.2742 161° South 367 422 14,000 1,200 Level Atlanta Center
11:12PM 32.9217 -84.2344 154° Southeast 367 422 16,500 2,580 Climbing Atlanta Center
11:13PM 32.8153 -84.1722 152° Southeast 378 435 19,200 2,400 Climbing Atlanta Center
11:14PM 32.7131 -84.1081 152° Southeast 389 448 21,300 2,040 Climbing Atlanta Center
11:15PM 32.6067 -84.0414 152° Southeast 409 471 23,300 1,980 Climbing Atlanta Center
11:16PM 32.4958 -83.9725 152° Southeast 432 497 25,300 1,800 Climbing Atlanta Center
11:17PM 32.3811 -83.9011 152° Southeast 445 512 26,900 1,560 Climbing Atlanta Center
11:19PM 32.1697 -83.7711 152° Southeast 469 540 29,900 1,380 Climbing Jacksonville Center
11:20PM 32.0511 -83.6967 152° Southeast 475 547 31,000 540 Climbing Jacksonville Center
11:21PM 31.9306 -83.6219 151° Southeast 480 552 31,000  Level Jacksonville Center
11:22PM 31.8119 -83.5453 153° Southeast 485 558 31,000  Level Jacksonville Center
11:23PM 31.6892 -83.4714 154° Southeast 485 558 31,000  Level Jacksonville Center
11:24PM 31.5664 -83.3997 153° Southeast 485 558 31,000 300 Level Jacksonville Center
11:25PM 31.4350 -83.3211 153° Southeast 485 558 31,600 780 Climbing Jacksonville Center
11:26PM 31.3100 -83.2453 153° Southeast 485 558 32,600 660 Climbing Jacksonville Center
11:27PM 31.1892 -83.1719 153° Southeast 490 564 33,000 180 Climbing Jacksonville Center
11:28PM 31.0681 -83.1011 153° Southeast 485 558 33,000  Level Jacksonville Center
11:29PM 30.9514 -83.0306 154° Southeast 485 558 33,000  Level Jacksonville Center
11:30PM 30.8344 -82.9628 153° Southeast 478 550 33,000  Level Jacksonville Center
11:31PM 30.7258 -82.8997 152° Southeast 478 550 33,000  Level Jacksonville Center
11:32PM 30.6069 -82.8275 152° Southeast 478 550 33,000  Level Jacksonville Center
11:33PM 30.4919 -82.7553 154° Southeast 473 544 33,000  Level Jacksonville Center
11:34PM 30.3728 -82.6878 153° Southeast 468 539 33,000 -840 Level Jacksonville Center
11:35PM 30.2494 -82.6161 153° Southeast 473 544 31,400 -2,280 Descending Jacksonville Center
11:36PM 30.1325 -82.5467 153° Southeast 478 550 28,500 -2,700 Descending Jacksonville Center
11:37PM 30.0175 -82.4800 158° South 472 543 26,100 -2,220 Descending Jacksonville Center
11:38PM 29.9044 -82.4278 162° South 454 522 24,200 -1,740 Descending Jacksonville Center
11:39PM 29.7875 -82.3853 163° South 443 510 22,700 -1,500 Descending Jacksonville Center
11:40PM 29.6725 -82.3453 162° South 438 504 21,300 -1,380 Descending Jacksonville Center
11:41PM 29.5636 -82.3053 160° South 428 493 20,000 -1,500 Descending Jacksonville Center
11:42PM 29.4550 -82.2606 153° Southeast 421 484 18,400 -1,380 Descending Jacksonville Center
11:43PM 29.3608 -82.2064 153° Southeast 399 459 17,300 -1,200 Descending Jacksonville Center
11:44PM 29.2664 -82.1522 153° Southeast 388 447 16,100 -1,200 Descending Jacksonville Center
11:45PM 29.1764 -82.1006 152° Southeast 370 426 14,900 -1,200 Descending Jacksonville Center
11:46PM 29.0883 -82.0467 155° Southeast 364 419 13,700 -1,200 Descending Jacksonville Center
11:47PM 29.0003 -82.0000 151° Southeast 359 413 12,600 -1,080 Descending Jacksonville Center
11:48PM 28.9292 -81.9556 143° Southeast 331 381 11,600 -840 Descending Jacksonville Center
11:49PM 28.8681 -81.9039 123° Southeast 298 343 11,000 -300 Descending Jacksonville Center
11:50PM 28.8258 -81.8308 100° East 273 314 11,000 -600 Level Jacksonville Center
11:51PM 28.8128 -81.7506 98° East 257 296 9,800 -1,380 Descending Jacksonville Center
11:52PM 28.8036 -81.6722 94° East 250 288 8,300 -1,500 Descending Jacksonville Center
11:53PM 28.7986 -81.5894 105° East 250 288 6,900 -1,080 Descending Jacksonville Center
11:54PM 28.7811 -81.5164 109° East 250 288 6,200 -600 Descending Jacksonville Center
11:55PM 28.7617 -81.4525 134° Southeast 229 264 5,800 -600 Descending Jacksonville Center
11:56PM 28.7167 -81.4000 139° Southeast 210 242 5,000 -540 Descending Orlando TRACON
11:57PM 28.6667 -81.3500 139° Southeast 199 229 4,700 -660 Descending Orlando TRACON
11:58PM 28.6333 -81.3167 156° South 178 205 3,700 -960 Descending Orlando TRACON
11:59PM 28.6000 -81.3000 180° South 169 194 2,900 -900 Descending Orlando TRACON
12:00AM 28.5333 -81.3000 180° South 181 208 2,000 -840 Descending Orlando TRACON
12:01AM 28.5000 -81.3000 180° South 161 185 1,300 -780 Descending Orlando TRACON
12:02AM 28.4667 -81.3000 180° South 133 153 700 -720 Descending Orlando TRACON